Time;durP1;ratioP1;P1;durP2;ratioP2;P2;SDS_P1;SDS_P2;PMS_P1;PMS_P2;Temp;Humidity;BMP_temperature;BMP_pressure;BME280_temperature;BME280_humidity;BME280_pressure;Samples;Min_cycle;Max_cycle;Signal;HPM_P1;HPM_P2
2021/12/06 00:01:20;;;;;;;28.93;12.27;;;1.50;99.90;;;;;;10551132;28;20238;-78
2021/12/06 00:06:46;;;;;;;26.90;12.00;;;1.50;99.90;;;;;;10536125;28;20274;-78
2021/12/06 00:12:09;;;;;;;27.60;11.63;;;1.50;99.90;;;;;;10565787;28;20201;-80
2021/12/06 00:17:31;;;;;;;35.77;16.17;;;1.50;99.90;;;;;;10532341;28;20260;-79
2021/12/06 00:22:54;;;;;;;22.77;11.67;;;1.50;99.90;;;;;;10550224;28;20239;-78
2021/12/06 00:28:17;;;;;;;17.70;10.70;;;1.40;99.90;;;;;;10529737;28;20213;-78
2021/12/06 00:33:40;;;;;;;17.70;10.00;;;1.40;99.90;;;;;;10533025;28;20222;-80
2021/12/06 00:39:05;;;;;;;22.40;11.83;;;1.40;99.90;;;;;;10546181;28;20283;-79
2021/12/06 00:44:29;;;;;;;24.13;11.90;;;1.50;99.90;;;;;;10549835;28;20194;-79
2021/12/06 00:49:52;;;;;;;26.33;13.53;;;1.50;99.90;;;;;;10541699;28;20250;-79
2021/12/06 00:55:15;;;;;;;29.13;13.90;;;1.30;99.90;;;;;;10532124;28;20207;-79
2021/12/06 01:00:42;;;;;;;70.23;30.53;;;1.40;99.90;;;;;;10563848;28;20214;-78
2021/12/06 01:06:05;;;;;;;63.80;23.80;;;1.40;99.90;;;;;;10512875;28;20226;-79
2021/12/06 01:11:30;;;;;;;35.43;15.67;;;1.40;99.90;;;;;;10545381;28;20300;-79
2021/12/06 01:16:52;;;;;;;39.23;15.33;;;1.40;99.90;;;;;;10516686;28;20283;-78
2021/12/06 01:22:31;;;;;;;35.70;15.97;;;1.40;99.90;;;;;;10547565;28;20221;-79
2021/12/06 01:34:05;;;;;;;38.20;16.80;;;1.20;99.90;;;;;;10547279;28;20231;-79
2021/12/06 01:39:26;;;;;;;32.30;13.77;;;1.20;99.90;;;;;;10531122;28;20573;-79
2021/12/06 01:44:54;;;;;;;34.13;16.10;;;1.10;99.90;;;;;;10544083;28;20239;-78
2021/12/06 01:50:24;;;;;;;24.83;12.80;;;1.20;99.90;;;;;;10543253;28;20279;-79
2021/12/06 01:55:46;;;;;;;26.57;14.00;;;1.20;99.90;;;;;;10546169;28;20206;-79
2021/12/06 02:01:09;;;;;;;24.60;13.40;;;1.20;99.90;;;;;;10532821;28;20218;-79
2021/12/06 02:06:33;;;;;;;20.23;12.53;;;1.20;99.90;;;;;;10546577;28;20190;-78
2021/12/06 02:11:59;;;;;;;24.50;12.97;;;1.20;99.90;;;;;;10515574;28;20496;-80
2021/12/06 02:17:31;;;;;;;29.27;13.17;;;1.20;99.90;;;;;;10493833;28;20270;-78
2021/12/06 02:22:56;;;;;;;23.67;12.57;;;1.20;99.90;;;;;;10515688;28;20201;-79
2021/12/06 02:28:17;;;;;;;16.73;9.77;;;1.20;99.90;;;;;;10529227;28;20205;-79
2021/12/06 02:33:41;;;;;;;15.97;10.33;;;1.20;99.90;;;;;;10528095;28;20396;-78
2021/12/06 02:39:08;;;;;;;18.93;11.47;;;1.20;99.90;;;;;;10542886;28;20474;-78
2021/12/06 02:44:30;;;;;;;16.90;10.43;;;1.20;99.90;;;;;;10513586;28;20227;-78
2021/12/06 02:49:52;;;;;;;19.67;10.67;;;1.10;99.90;;;;;;10560703;28;20202;-78
2021/12/06 03:00:54;;;;;;;27.13;15.53;;;1.10;99.90;;;;;;10529972;28;20248;-78
2021/12/06 03:06:17;;;;;;;36.47;17.90;;;1.10;99.90;;;;;;10532765;28;20256;-79
2021/12/06 03:11:54;;;;;;;33.17;18.00;;;1.10;99.90;;;;;;10536181;28;20195;-79
2021/12/06 03:17:20;;;;;;;11.87;8.53;;;1.10;99.90;;;;;;10542775;28;20384;-78
2021/12/06 03:22:44;;;;;;;11.13;7.30;;;1.10;99.90;;;;;;10567881;28;20525;-79
2021/12/06 03:28:07;;;;;;;12.10;8.00;;;1.00;99.90;;;;;;10552633;28;20220;-79
2021/12/06 03:33:30;;;;;;;9.63;6.73;;;1.00;99.90;;;;;;10567421;28;20272;-78
2021/12/06 03:38:56;;;;;;;9.23;6.60;;;1.00;99.90;;;;;;10531480;28;20448;-78
2021/12/06 03:44:20;;;;;;;11.00;7.57;;;1.00;99.90;;;;;;10547661;28;20233;-78
2021/12/06 03:49:43;;;;;;;14.13;7.67;;;1.00;99.90;;;;;;10551773;28;20197;-78
2021/12/06 03:55:09;;;;;;;17.20;8.00;;;1.00;99.90;;;;;;10521119;28;20213;-79
2021/12/06 04:00:33;;;;;;;21.10;10.03;;;0.90;99.90;;;;;;10551241;28;20272;-78
2021/12/06 04:05:56;;;;;;;15.47;7.83;;;0.90;99.90;;;;;;10551118;28;20194;-78
2021/12/06 04:11:22;;;;;;;12.70;7.43;;;0.80;99.90;;;;;;10515614;28;20516;-78
2021/12/06 04:16:44;;;;;;;10.27;6.23;;;0.80;99.90;;;;;;10532453;28;20438;-78
2021/12/06 04:22:06;;;;;;;9.30;5.70;;;0.80;99.90;;;;;;10532854;28;20225;-78
2021/12/06 04:27:30;;;;;;;10.03;4.50;;;0.80;99.90;;;;;;10549852;28;20212;-80
2021/12/06 04:32:54;;;;;;;9.77;4.67;;;0.80;99.90;;;;;;10549919;28;20271;-79
2021/12/06 04:38:17;;;;;;;5.80;4.00;;;0.80;99.90;;;;;;10532582;28;20252;-78
2021/12/06 04:43:39;;;;;;;8.77;5.00;;;0.80;99.90;;;;;;10542614;28;20512;-78
2021/12/06 04:49:04;;;;;;;10.47;5.30;;;0.70;99.90;;;;;;10518112;28;20218;-78
2021/12/06 04:54:34;;;;;;;7.87;5.57;;;0.70;99.90;;;;;;10549042;28;20272;-78
2021/12/06 05:00:12;;;;;;;7.23;4.53;;;0.70;99.90;;;;;;10548328;28;20224;-79
2021/12/06 05:05:43;;;;;;;10.30;5.97;;;0.70;99.90;;;;;;10534629;28;20223;-78
2021/12/06 05:11:06;;;;;;;11.50;6.23;;;0.70;99.90;;;;;;10530336;28;20216;-79
2021/12/06 05:16:30;;;;;;;13.40;7.07;;;0.70;99.90;;;;;;10548365;28;20231;-79
2021/12/06 05:21:53;;;;;;;27.07;12.47;;;0.70;99.90;;;;;;10530381;28;20222;-78
2021/12/06 05:27:23;;;;;;;21.47;8.90;;;0.70;99.90;;;;;;10547049;28;20201;-78
2021/12/06 05:32:46;;;;;;;14.67;7.40;;;0.80;99.90;;;;;;10547625;28;20225;-78
2021/12/06 05:38:09;;;;;;;13.60;6.70;;;0.70;99.90;;;;;;10562264;28;20236;-78
2021/12/06 05:43:32;;;;;;;13.93;5.97;;;0.70;99.90;;;;;;10542744;28;20265;-79
2021/12/06 05:48:55;;;;;;;14.90;6.83;;;0.60;99.90;;;;;;10561430;28;20243;-78
2021/12/06 05:54:18;;;;;;;10.00;6.03;;;0.70;99.90;;;;;;10543720;28;20238;-79
2021/12/06 05:59:41;;;;;;;12.17;6.67;;;0.70;99.90;;;;;;10543599;28;20415;-78
2021/12/06 06:05:05;;;;;;;11.87;5.83;;;0.70;99.90;;;;;;10529519;28;20201;-79
2021/12/06 06:10:30;;;;;;;7.90;5.37;;;0.70;99.90;;;;;;10561660;28;20225;-79
2021/12/06 06:15:54;;;;;;;10.13;5.73;;;0.60;99.90;;;;;;10546811;28;20225;-79
2021/12/06 06:21:18;;;;;;;10.17;4.87;;;0.70;99.90;;;;;;10560585;28;20523;-78
2021/12/06 06:26:40;;;;;;;43.70;17.27;;;0.70;99.90;;;;;;10560857;28;20485;-79
2021/12/06 06:32:05;;;;;;;12.33;6.43;;;0.60;99.90;;;;;;10543028;28;20214;-79
2021/12/06 06:37:27;;;;;;;6.63;4.30;;;0.60;99.90;;;;;;10551816;28;20222;-79
2021/12/06 06:42:49;;;;;;;10.37;6.27;;;0.50;99.90;;;;;;10549436;28;20220;-79
2021/12/06 06:48:12;;;;;;;5.93;4.00;;;0.60;99.90;;;;;;10536138;28;20382;-78
2021/12/06 06:53:34;;;;;;;20.13;11.03;;;0.50;99.90;;;;;;10553335;28;20235;-79
2021/12/06 06:58:56;;;;;;;28.60;14.30;;;0.50;99.90;;;;;;10550355;28;20220;-79
2021/12/06 07:04:19;;;;;;;25.00;9.17;;;0.40;99.90;;;;;;10553305;28;20221;-78
2021/12/06 07:09:43;;;;;;;11.33;6.40;;;0.30;99.90;;;;;;10552751;28;20203;-79
2021/12/06 07:15:05;;;;;;;19.73;9.50;;;0.20;99.90;;;;;;10549671;28;20204;-79
2021/12/06 07:20:30;;;;;;;52.03;27.47;;;0.30;99.90;;;;;;10551810;28;20270;-79
2021/12/06 07:25:52;;;;;;;16.80;10.07;;;0.30;99.90;;;;;;10551436;28;20258;-79
2021/12/06 07:31:14;;;;;;;10.00;5.60;;;0.20;99.90;;;;;;10552428;28;20435;-79
2021/12/06 07:36:37;;;;;;;8.10;5.33;;;0.20;99.90;;;;;;10534627;28;20208;-79
2021/12/06 07:41:59;;;;;;;35.37;15.30;;;0.20;99.90;;;;;;10551915;28;20413;-79
2021/12/06 07:47:22;;;;;;;23.97;10.80;;;0.10;99.90;;;;;;10530603;28;20196;-78
2021/12/06 07:52:47;;;;;;;61.87;23.87;;;0.10;99.90;;;;;;10536538;28;20204;-78
2021/12/06 07:58:10;;;;;;;49.73;18.10;;;0.10;99.90;;;;;;10550930;28;20266;-78
2021/12/06 08:03:32;;;;;;;20.30;9.43;;;0.10;99.90;;;;;;10547773;28;20586;-78
2021/12/06 08:08:54;;;;;;;44.23;16.10;;;0.00;99.90;;;;;;10526274;28;20439;-78
2021/12/06 08:14:17;;;;;;;24.90;11.40;;;0.00;99.90;;;;;;10549812;28;20234;-78
2021/12/06 08:19:40;;;;;;;40.63;15.23;;;0.00;99.90;;;;;;10531640;28;20297;-79
2021/12/06 08:25:03;;;;;;;60.87;20.93;;;0.00;99.90;;;;;;10547074;28;20202;-79
2021/12/06 08:30:26;;;;;;;66.17;22.40;;;-0.10;99.90;;;;;;10546640;28;20204;-78
2021/12/06 08:35:53;;;;;;;50.73;19.07;;;0.00;99.90;;;;;;10532456;28;20204;-79
2021/12/06 08:41:20;;;;;;;54.20;20.10;;;-0.10;99.90;;;;;;10484341;28;20260;-89
2021/12/06 08:46:43;;;;;;;17.30;8.80;;;-0.10;99.90;;;;;;10515514;28;20212;-77
2021/12/06 08:52:05;;;;;;;62.83;22.50;;;-0.10;99.90;;;;;;10517217;28;20407;-78
2021/12/06 08:57:28;;;;;;;31.23;12.63;;;0.00;99.90;;;;;;10515407;28;20196;-78
2021/12/06 09:02:50;;;;;;;58.87;23.03;;;0.00;99.90;;;;;;10515241;28;20220;-78
2021/12/06 09:08:15;;;;;;;67.07;24.60;;;0.00;99.90;;;;;;10516673;28;20454;-79
2021/12/06 09:13:38;;;;;;;64.93;25.17;;;0.10;99.90;;;;;;10496335;28;20205;-78
2021/12/06 09:19:01;;;;;;;49.27;19.10;;;0.10;99.90;;;;;;10514599;28;20207;-79
2021/12/06 09:24:23;;;;;;;63.53;21.00;;;0.20;99.90;;;;;;10500570;28;20467;-78
2021/12/06 09:29:45;;;;;;;63.07;21.67;;;0.10;99.90;;;;;;10516265;28;20212;-78
2021/12/06 09:35:11;;;;;;;56.43;21.70;;;0.00;99.90;;;;;;10514430;28;20271;-78
2021/12/06 09:40:36;;;;;;;56.57;22.17;;;0.10;99.90;;;;;;10495033;28;20252;-82
2021/12/06 09:45:58;;;;;;;51.53;16.37;;;0.10;99.90;;;;;;10485883;28;20220;-78
2021/12/06 09:51:25;;;;;;;63.53;21.00;;;0.20;99.90;;;;;;10514862;28;20203;-79
2021/12/06 09:56:49;;;;;;;65.87;21.93;;;0.20;99.90;;;;;;10513791;28;20550;-78
2021/12/06 10:02:21;;;;;;;62.20;22.43;;;0.10;99.90;;;;;;10513063;28;20233;-79
2021/12/06 10:07:43;;;;;;;23.07;10.80;;;0.20;99.90;;;;;;10496640;28;20250;-86
2021/12/06 10:13:06;;;;;;;35.13;15.40;;;0.20;99.90;;;;;;10502759;28;20225;-78
2021/12/06 10:18:27;;;;;;;26.93;12.77;;;0.20;99.90;;;;;;10512734;28;20209;-77
2021/12/06 10:23:51;;;;;;;27.80;11.50;;;0.20;99.90;;;;;;10513767;28;20438;-81
2021/12/06 10:29:22;;;;;;;34.00;13.90;;;0.20;99.90;;;;;;10513954;28;20213;-78
2021/12/06 10:34:47;;;;;;;25.87;12.33;;;0.30;99.90;;;;;;10512897;28;20281;-78
2021/12/06 10:40:16;;;;;;;44.30;18.30;;;0.30;99.90;;;;;;10479599;28;20528;-82
2021/12/06 10:45:49;;;;;;;34.53;18.17;;;0.30;99.90;;;;;;10512464;28;20242;-80
2021/12/06 10:51:15;;;;;;;25.80;13.13;;;0.30;99.90;;;;;;10499681;28;20227;-81
2021/12/06 10:56:45;;;;;;;21.83;9.83;;;0.30;99.90;;;;;;10514138;28;20221;-78
2021/12/06 11:02:12;;;;;;;22.60;9.50;;;0.30;99.90;;;;;;10511666;28;20315;-77
2021/12/06 11:07:35;;;;;;;38.10;14.20;;;0.40;99.90;;;;;;10492933;28;20567;-79
2021/12/06 11:13:23;;;;;;;41.60;18.47;;;0.40;99.90;;;;;;10498115;28;20221;-82
2021/12/06 11:18:56;;;;;;;58.33;23.40;;;0.50;99.90;;;;;;10471524;28;20202;-84
2021/12/06 11:24:37;;;;;;;50.93;22.73;;;0.50;99.90;;;;;;10504034;28;20397;-80
2021/12/06 11:30:04;;;;;;;32.73;14.73;;;0.50;99.90;;;;;;10520598;28;20277;-84
2021/12/06 11:35:28;;;;;;;31.40;13.67;;;0.50;99.90;;;;;;10502539;28;20197;-81
2021/12/06 11:40:56;;;;;;;65.73;23.43;;;0.50;99.90;;;;;;10501614;28;20237;-79
2021/12/06 11:46:30;;;;;;;40.47;15.73;;;0.50;99.90;;;;;;10519391;28;20210;-80
2021/12/06 11:51:53;;;;;;;52.20;19.37;;;0.50;99.90;;;;;;10504745;28;20225;-79
2021/12/06 11:57:20;;;;;;;29.13;12.37;;;0.60;99.90;;;;;;10505061;28;20260;-78
2021/12/06 12:02:53;;;;;;;30.30;12.37;;;0.60;99.90;;;;;;10483852;28;20233;-82
2021/12/06 12:08:16;;;;;;;55.43;20.03;;;0.70;99.90;;;;;;10500897;28;20203;-85
2021/12/06 12:13:39;;;;;;;55.13;20.53;;;0.70;99.90;;;;;;10476018;28;20221;-77
2021/12/06 12:19:01;;;;;;;93.43;39.57;;;0.60;99.90;;;;;;10505742;28;20288;-82
2021/12/06 12:24:23;;;;;;;49.73;19.47;;;0.60;99.90;;;;;;10468906;28;20212;-83
2021/12/06 12:29:47;;;;;;;40.03;13.87;;;0.50;99.90;;;;;;10497149;28;20205;-81
2021/12/06 12:35:14;;;;;;;40.53;17.30;;;0.40;99.90;;;;;;10486552;28;20240;-80
2021/12/06 12:40:48;;;;;;;38.90;17.13;;;0.30;99.90;;;;;;10472197;28;20257;-81
2021/12/06 12:46:25;;;;;;;50.27;19.83;;;0.30;99.90;;;;;;10486410;28;20196;-87
2021/12/06 12:51:53;;;;;;;42.20;18.27;;;0.30;99.90;;;;;;10467769;28;20237;-85
2021/12/06 12:57:16;;;;;;;29.30;13.20;;;0.30;99.90;;;;;;10470562;28;20207;-81
2021/12/06 13:02:38;;;;;;;27.30;13.60;;;0.40;99.90;;;;;;10488449;28;20518;-87
2021/12/06 13:08:03;;;;;;;27.93;13.13;;;0.30;99.90;;;;;;10471116;28;20236;-79
2021/12/06 13:13:40;;;;;;;35.17;13.27;;;0.20;99.90;;;;;;10493593;28;20478;-91
2021/12/06 13:19:33;;;;;;;44.83;16.77;;;0.10;99.90;;;;;;10471365;28;20223;-83
2021/12/06 13:25:19;;;;;;;32.20;13.53;;;0.10;99.90;;;;;;10468427;28;20288;-80
2021/12/06 13:30:48;;;;;;;19.97;7.43;;;0.00;99.90;;;;;;10484524;28;20205;-84
2021/12/06 13:36:10;;;;;;;8.67;4.70;;;-0.10;99.90;;;;;;10485012;28;20234;-80
2021/12/06 13:41:45;;;;;;;8.37;4.77;;;-0.10;99.90;;;;;;10441980;28;20254;-84
2021/12/06 13:47:10;;;;;;;10.10;5.40;;;-0.10;99.90;;;;;;10421744;28;20268;-79
2021/12/06 13:52:46;;;;;;;11.53;6.93;;;-0.10;99.90;;;;;;10455461;28;20224;-85
2021/12/06 13:58:09;;;;;;;9.00;5.33;;;-0.10;99.90;;;;;;10441123;28;20211;-81
2021/12/06 14:03:43;;;;;;;15.00;6.63;;;-0.20;99.90;;;;;;10441955;28;20229;-82
2021/12/06 14:09:04;;;;;;;17.43;5.63;;;-0.30;99.90;;;;;;10445453;28;20216;-84
2021/12/06 14:14:28;;;;;;;18.67;8.53;;;-0.30;99.90;;;;;;10441301;28;20204;-80
2021/12/06 14:19:51;;;;;;;9.20;5.37;;;-0.40;99.90;;;;;;10438128;28;20504;-90
2021/12/06 14:25:17;;;;;;;7.67;4.40;;;-0.40;99.90;;;;;;10445882;28;20204;-82
2021/12/06 14:30:38;;;;;;;17.50;9.43;;;-0.50;99.90;;;;;;10427442;28;20224;-79
2021/12/06 14:36:03;;;;;;;19.33;7.13;;;-0.50;99.90;;;;;;10471831;28;20206;-84
2021/12/06 14:41:25;;;;;;;18.47;9.93;;;-0.60;99.90;;;;;;10481820;28;20315;-86
2021/12/06 14:46:48;;;;;;;25.50;11.30;;;-0.60;99.90;;;;;;10498299;28;20196;-83
2021/12/06 14:52:17;;;;;;;15.17;7.40;;;-0.60;99.90;;;;;;10478597;28;20378;-86
2021/12/06 14:57:39;;;;;;;19.83;8.43;;;-0.60;99.90;;;;;;10473761;28;20208;-82
2021/12/06 15:03:04;;;;;;;12.30;6.20;;;-0.60;99.90;;;;;;10476431;28;20357;-83
2021/12/06 15:08:43;;;;;;;28.53;9.10;;;-0.50;99.90;;;;;;10461664;28;20270;-82
2021/12/06 15:14:14;;;;;;;144.03;49.67;;;-0.60;99.90;;;;;;10506017;28;20252;-90
2021/12/06 15:19:41;;;;;;;125.03;55.63;;;-0.70;99.90;;;;;;10488380;28;20201;-81
2021/12/06 15:25:05;;;;;;;46.60;23.03;;;-0.70;99.90;;;;;;10475700;28;20248;-78
2021/12/06 15:30:34;;;;;;;71.27;30.60;;;-0.80;99.90;;;;;;10489359;28;20541;-89
2021/12/06 15:36:03;;;;;;;48.47;26.87;;;-0.80;99.90;;;;;;10475416;28;20212;-85
2021/12/06 15:41:32;;;;;;;36.47;18.60;;;-0.90;99.90;;;;;;10463429;28;20250;-83
2021/12/06 15:47:05;;;;;;;25.53;10.70;;;-0.90;99.90;;;;;;10465465;28;20214;-92
2021/12/06 15:52:29;;;;;;;10.70;5.10;;;-0.80;99.90;;;;;;10428387;28;20209;-90
2021/12/06 15:57:58;;;;;;;9.53;4.90;;;-0.80;99.90;;;;;;10444309;28;20251;-88
2021/12/06 16:03:29;;;;;;;17.70;7.90;;;-0.90;99.90;;;;;;10447217;28;20267;-89
2021/12/06 16:08:52;;;;;;;17.63;8.60;;;-0.90;99.90;;;;;;10462740;28;20434;-84
2021/12/06 16:14:15;;;;;;;27.77;12.30;;;-0.90;99.90;;;;;;10480120;28;20223;-79
2021/12/06 16:19:38;;;;;;;48.20;18.67;;;-0.90;99.90;;;;;;10466493;28;20236;-80
2021/12/06 16:25:00;;;;;;;32.93;12.57;;;-0.80;99.90;;;;;;10464249;28;20205;-79
2021/12/06 16:30:23;;;;;;;40.93;14.07;;;-0.90;99.90;;;;;;10481346;28;20503;-79
2021/12/06 16:35:45;;;;;;;88.03;26.73;;;-0.90;99.90;;;;;;10480472;28;20204;-79
2021/12/06 16:41:15;;;;;;;62.33;23.77;;;-0.90;99.90;;;;;;10515813;28;20244;-79
2021/12/06 16:46:51;;;;;;;35.70;14.50;;;-0.90;99.90;;;;;;10506793;28;20196;-79
2021/12/06 16:52:22;;;;;;;47.50;18.40;;;-0.90;99.90;;;;;;10473656;28;20209;-79
2021/12/06 16:57:44;;;;;;;41.87;14.90;;;-1.00;99.90;;;;;;10490410;28;20217;-80
2021/12/06 17:03:13;;;;;;;35.03;13.47;;;-1.00;99.90;;;;;;10507111;28;20220;-80
2021/12/06 17:08:38;;;;;;;81.17;31.13;;;-0.90;99.90;;;;;;10490094;28;20205;-79
2021/12/06 17:14:05;;;;;;;77.00;27.70;;;-0.90;99.90;;;;;;10474216;28;20212;-79
2021/12/06 17:19:29;;;;;;;52.97;16.83;;;-0.90;99.90;;;;;;10490536;28;20196;-79
2021/12/06 17:24:57;;;;;;;27.47;9.57;;;-0.90;99.90;;;;;;10506318;28;20215;-78
2021/12/06 17:30:26;;;;;;;9.40;5.27;;;-0.90;99.90;;;;;;10502862;28;20227;-78
2021/12/06 17:35:52;;;;;;;31.77;12.57;;;-0.90;99.90;;;;;;10503182;28;20200;-80
2021/12/06 17:41:19;;;;;;;13.00;5.70;;;-0.80;99.90;;;;;;10462353;28;20253;-79
2021/12/06 17:46:41;;;;;;;24.73;10.37;;;-0.80;99.90;;;;;;10445850;28;20194;-79
2021/12/06 17:52:04;;;;;;;43.50;21.17;;;-0.70;99.90;;;;;;10466750;28;20224;-80
2021/12/06 17:57:41;;;;;;;40.77;22.43;;;-0.60;99.90;;;;;;10477714;28;20389;-80
2021/12/06 18:03:04;;;;;;;26.80;12.57;;;-0.50;99.90;;;;;;10449605;28;20227;-80
2021/12/06 18:08:26;;;;;;;18.70;9.43;;;-0.60;99.90;;;;;;10479807;28;20513;-79
2021/12/06 18:13:50;;;;;;;39.67;18.47;;;-0.40;99.90;;;;;;10476930;28;20221;-79
2021/12/06 18:19:13;;;;;;;35.10;14.97;;;-0.40;99.90;;;;;;10476789;28;20285;-79
2021/12/06 18:24:35;;;;;;;22.77;10.97;;;-0.40;99.90;;;;;;10493575;28;20249;-80
2021/12/06 18:29:59;;;;;;;15.93;8.37;;;-0.50;99.90;;;;;;10462903;28;20206;-80
2021/12/06 18:35:24;;;;;;;39.53;17.07;;;-0.40;99.90;;;;;;10457794;28;20206;-80
2021/12/06 18:40:51;;;;;;;51.17;21.60;;;-0.40;99.90;;;;;;10509481;28;20246;-79
2021/12/06 18:46:19;;;;;;;34.70;16.53;;;-0.40;99.90;;;;;;10508966;28;20229;-80
2021/12/06 18:51:41;;;;;;;24.17;12.13;;;-0.40;99.90;;;;;;10492645;28;20200;-80
2021/12/06 18:57:04;;;;;;;23.47;11.63;;;-0.40;99.90;;;;;;10504475;28;20197;-79
2021/12/06 19:02:27;;;;;;;21.77;10.90;;;-0.40;99.90;;;;;;10526964;28;20224;-80
2021/12/06 19:07:50;;;;;;;23.17;11.07;;;-0.40;99.90;;;;;;10526739;28;20431;-79
2021/12/06 19:13:12;;;;;;;21.30;9.83;;;-0.40;99.90;;;;;;10511408;28;20207;-80
2021/12/06 19:18:34;;;;;;;25.20;11.37;;;-0.40;99.90;;;;;;10493152;28;20274;-79
2021/12/06 19:23:58;;;;;;;42.97;18.40;;;-0.50;99.90;;;;;;10508157;28;20300;-79
2021/12/06 19:29:20;;;;;;;30.67;12.93;;;-0.50;99.90;;;;;;10507951;28;20526;-80
2021/12/06 19:34:45;;;;;;;26.60;10.50;;;-0.50;99.90;;;;;;10511002;28;20470;-79
2021/12/06 19:40:11;;;;;;;20.00;7.70;;;-0.50;99.90;;;;;;10496564;28;20435;-79
2021/12/06 19:45:35;;;;;;;18.37;7.23;;;-0.60;99.90;;;;;;10491282;28;20219;-79
2021/12/06 19:50:59;;;;;;;19.33;10.00;;;-0.50;99.90;;;;;;10510109;28;20234;-79
2021/12/06 19:56:22;;;;;;;19.60;8.87;;;-0.50;99.90;;;;;;10509809;28;20228;-80
2021/12/06 20:01:44;;;;;;;20.67;7.30;;;-0.60;99.90;;;;;;10509707;28;20243;-79
2021/12/06 20:07:09;;;;;;;17.53;8.00;;;-0.60;99.90;;;;;;10492933;28;20204;-79
2021/12/06 20:12:31;;;;;;;19.07;7.33;;;-0.60;99.90;;;;;;10495332;28;20494;-79
2021/12/06 20:17:55;;;;;;;12.50;6.20;;;-0.60;99.90;;;;;;10502201;28;20194;-79
2021/12/06 20:23:18;;;;;;;17.23;7.90;;;-0.60;99.90;;;;;;10492095;28;20229;-79
2021/12/06 20:28:39;;;;;;;18.93;9.43;;;-0.60;99.90;;;;;;10508481;28;20204;-81
2021/12/06 20:34:02;;;;;;;19.90;9.87;;;-0.60;99.90;;;;;;10508456;28;20232;-79
2021/12/06 20:39:24;;;;;;;18.80;8.37;;;-0.60;99.90;;;;;;10522943;28;20229;-80
2021/12/06 20:44:47;;;;;;;13.93;6.10;;;-0.70;99.90;;;;;;10522233;28;20455;-79
2021/12/06 20:50:10;;;;;;;12.83;5.50;;;-0.70;99.90;;;;;;10502341;28;20240;-79
2021/12/06 20:55:32;;;;;;;11.87;5.73;;;-0.70;99.90;;;;;;10498426;28;20203;-79
2021/12/06 21:00:54;;;;;;;23.20;9.37;;;-0.70;99.90;;;;;;10507492;28;20528;-79
2021/12/06 21:06:17;;;;;;;43.90;17.30;;;-0.60;99.90;;;;;;10507422;28;20380;-79
2021/12/06 21:11:45;;;;;;;35.77;16.67;;;-0.60;99.90;;;;;;10506945;28;20196;-81
2021/12/06 21:17:10;;;;;;;42.03;20.43;;;-0.50;99.90;;;;;;10503038;28;20424;-79
2021/12/06 21:22:32;;;;;;;42.13;19.00;;;-0.50;99.90;;;;;;10487838;28;20228;-79
2021/12/06 21:27:54;;;;;;;76.80;31.53;;;-0.50;99.90;;;;;;10506380;28;20214;-79
2021/12/06 21:33:16;;;;;;;57.43;26.80;;;-0.40;99.90;;;;;;10479722;28;20209;-80
2021/12/06 21:38:39;;;;;;;48.07;20.40;;;-0.40;99.90;;;;;;10505087;28;20540;-79
2021/12/06 21:44:01;;;;;;;59.77;26.27;;;-0.50;99.90;;;;;;10488331;28;20402;-79
2021/12/06 21:49:24;;;;;;;51.93;23.83;;;-0.50;99.90;;;;;;10488609;28;20208;-79
2021/12/06 21:54:46;;;;;;;18.43;7.43;;;-0.50;99.90;;;;;;10520357;28;20230;-79
2021/12/06 22:00:11;;;;;;;22.47;8.80;;;-0.60;99.90;;;;;;10505609;28;20232;-79
2021/12/06 22:05:36;;;;;;;9.53;5.60;;;-0.60;99.90;;;;;;10487651;28;20500;-79
2021/12/06 22:10:59;;;;;;;23.50;10.57;;;-0.60;99.90;;;;;;10505016;28;20235;-80
2021/12/06 22:16:21;;;;;;;36.17;14.27;;;-0.60;99.90;;;;;;10501438;28;20276;-79
2021/12/06 22:21:46;;;;;;;24.80;10.93;;;-0.50;99.90;;;;;;10501729;28;20226;-79
2021/12/06 22:27:08;;;;;;;20.60;8.13;;;-0.50;99.90;;;;;;10487692;28;20201;-79
2021/12/06 22:32:30;;;;;;;21.67;7.37;;;-0.50;99.90;;;;;;10504715;28;20273;-79
2021/12/06 22:37:52;;;;;;;13.30;6.27;;;-0.60;99.90;;;;;;10503981;28;20306;-79
2021/12/06 22:43:17;;;;;;;24.10;8.13;;;-0.60;99.90;;;;;;10504351;28;20291;-79
2021/12/06 22:48:41;;;;;;;32.20;9.57;;;-0.60;99.90;;;;;;10500590;28;20193;-79
2021/12/06 22:54:04;;;;;;;24.33;7.63;;;-0.60;99.90;;;;;;10503850;28;20513;-80
2021/12/06 22:59:31;;;;;;;20.60;8.30;;;-0.60;99.90;;;;;;10500955;28;20199;-79
2021/12/06 23:04:53;;;;;;;48.07;14.43;;;-0.60;99.90;;;;;;10503786;28;20215;-80
2021/12/06 23:10:15;;;;;;;29.83;9.60;;;-0.50;99.90;;;;;;10503615;28;20203;-80
2021/12/06 23:15:37;;;;;;;31.43;9.20;;;-0.50;99.90;;;;;;10499959;28;20209;-79
2021/12/06 23:21:00;;;;;;;34.20;9.87;;;-0.60;99.90;;;;;;10496974;28;20414;-80
2021/12/06 23:26:23;;;;;;;37.90;11.83;;;-0.60;99.90;;;;;;10508271;28;20205;-79
2021/12/06 23:31:45;;;;;;;41.93;13.63;;;-0.50;99.90;;;;;;10510874;28;20192;-80
2021/12/06 23:37:08;;;;;;;48.03;13.77;;;-0.50;99.90;;;;;;10510537;28;20378;-79
2021/12/06 23:48:10;;;;;;;15.80;7.20;;;-0.50;99.90;;;;;;10517987;28;20194;-79
2021/12/06 23:53:32;;;;;;;10.30;4.93;;;-0.50;99.90;;;;;;10510032;28;20553;-80
2021/12/06 23:58:56;;;;;;;17.20;5.83;;;-0.60;99.90;;;;;;10506970;28;20557;-79
